createdAt,value
2022-11-09T00:00:08.611Z,55.00
2022-11-09T00:02:35.232Z,55.00
2022-11-09T00:05:02.480Z,55.00
2022-11-09T00:07:31.587Z,55.20
2022-11-09T00:09:58.288Z,55.30
2022-11-09T00:12:25.123Z,55.30
2022-11-09T00:14:52.035Z,55.40
2022-11-09T00:17:18.942Z,55.40
2022-11-09T00:19:45.760Z,55.50
2022-11-09T00:22:12.461Z,55.50
2022-11-09T00:24:39.332Z,55.60
2022-11-09T00:27:05.986Z,55.60
2022-11-09T00:29:32.700Z,55.60
2022-11-09T00:31:59.303Z,55.60
2022-11-09T00:34:26.266Z,55.70
2022-11-09T00:36:52.903Z,55.70
2022-11-09T00:39:19.701Z,55.70
2022-11-09T00:41:46.391Z,55.70
2022-11-09T00:44:13.116Z,55.70
2022-11-09T00:46:39.939Z,55.80
2022-11-09T00:49:06.576Z,56.00
2022-11-09T00:51:33.814Z,56.00
2022-11-09T00:54:00.712Z,55.90
2022-11-09T00:56:28.580Z,56.00
2022-11-09T00:58:55.976Z,55.90
2022-11-09T01:01:23.384Z,55.90
2022-11-09T01:03:50.177Z,55.90
2022-11-09T01:06:23.100Z,56.00
2022-11-09T01:08:50.644Z,56.00
2022-11-09T01:11:19.455Z,56.00
2022-11-09T01:13:46.820Z,56.00
2022-11-09T01:16:16.481Z,56.00
2022-11-09T01:18:43.667Z,56.10
2022-11-09T01:21:12.807Z,56.10
2022-11-09T01:23:40.592Z,56.10
2022-11-09T01:26:10.529Z,56.00
2022-11-09T01:28:37.420Z,56.10
2022-11-09T01:31:10.838Z,56.00
2022-11-09T01:33:37.752Z,56.10
2022-11-09T01:36:07.136Z,56.10
2022-11-09T01:38:35.572Z,56.10
2022-11-09T01:41:02.420Z,56.10
2022-11-09T01:43:29.404Z,56.10
2022-11-09T01:46:11.048Z,56.10
2022-11-09T01:48:43.377Z,56.30
2022-11-09T01:51:19.649Z,56.30
2022-11-09T01:53:50.007Z,56.20
2022-11-09T01:56:18.193Z,56.10
2022-11-09T01:58:53.581Z,56.10
2022-11-09T02:01:21.512Z,56.20
2022-11-09T02:04:08.025Z,56.10
2022-11-09T02:06:36.302Z,56.20
2022-11-09T02:09:15.222Z,56.10
2022-11-09T02:11:43.303Z,56.20
2022-11-09T02:14:10.248Z,56.00
2022-11-09T02:16:37.955Z,56.10
2022-11-09T02:19:04.849Z,56.10
2022-11-09T02:21:32.692Z,56.10
2022-11-09T02:24:00.220Z,56.00
2022-11-09T02:26:47.780Z,56.10
2022-11-09T02:29:18.889Z,56.40
2022-11-09T02:31:50.820Z,56.10
2022-11-09T02:34:20.062Z,56.10
2022-11-09T02:36:47.478Z,56.10
2022-11-09T02:39:25.654Z,56.50
2022-11-09T02:42:19.875Z,56.10
2022-11-09T02:44:51.743Z,56.30
2022-11-09T02:47:18.466Z,56.10
2022-11-09T02:49:46.747Z,56.10
2022-11-09T02:52:13.588Z,56.10
2022-11-09T02:54:40.301Z,56.20
2022-11-09T02:57:06.965Z,56.20
2022-11-09T02:59:33.870Z,56.30
2022-11-09T03:02:02.891Z,56.30
2022-11-09T03:04:31.120Z,56.40
2022-11-09T03:06:58.205Z,56.40
2022-11-09T03:09:25.679Z,56.60
2022-11-09T03:11:52.336Z,56.50
2022-11-09T03:14:21.363Z,56.60
2022-11-09T03:16:53.190Z,56.60
2022-11-09T03:19:20.056Z,56.60
2022-11-09T03:21:50.161Z,56.50
2022-11-09T03:24:21.419Z,56.40
2022-11-09T03:26:49.925Z,56.50
2022-11-09T03:29:16.575Z,56.50
2022-11-09T03:31:43.438Z,56.50
2022-11-09T03:34:10.588Z,56.60
2022-11-09T03:36:37.343Z,56.50
2022-11-09T03:39:04.099Z,56.60
2022-11-09T03:41:32.220Z,56.60
2022-11-09T03:43:58.947Z,56.60
2022-11-09T03:46:26.108Z,56.70
2022-11-09T03:48:53.080Z,56.70
2022-11-09T03:51:20.975Z,56.80
2022-11-09T03:53:47.598Z,56.70
2022-11-09T03:56:14.919Z,56.70
2022-11-09T03:58:41.529Z,56.70
2022-11-09T04:01:08.408Z,56.60
2022-11-09T04:03:35.096Z,56.70
2022-11-09T04:06:01.971Z,56.60
2022-11-09T04:08:28.688Z,56.60
2022-11-09T04:10:55.336Z,56.50
2022-11-09T04:13:22.520Z,56.50
2022-11-09T04:15:49.350Z,56.60
2022-11-09T04:18:17.187Z,56.60
2022-11-09T04:20:44.459Z,56.50
2022-11-09T04:23:12.816Z,56.60
2022-11-09T04:25:40.798Z,56.60
2022-11-09T04:28:11.138Z,56.60
2022-11-09T04:30:38.568Z,56.70
2022-11-09T04:33:05.672Z,56.60
2022-11-09T04:35:33.795Z,56.50
2022-11-09T04:38:10.280Z,56.60
2022-11-09T04:40:37.030Z,56.60
2022-11-09T04:43:06.291Z,57.10
2022-11-09T04:45:35.005Z,56.60
2022-11-09T04:48:03.628Z,56.60
2022-11-09T04:50:31.027Z,56.70
2022-11-09T04:53:07.846Z,56.60
2022-11-09T04:55:35.332Z,56.80
2022-11-09T04:58:02.183Z,56.70
2022-11-09T05:00:29.092Z,56.70
2022-11-09T05:02:58.795Z,56.70
2022-11-09T05:05:25.484Z,56.70
2022-11-09T05:07:52.390Z,56.70
2022-11-09T05:10:18.993Z,56.70
2022-11-09T05:12:46.194Z,56.80
2022-11-09T05:15:13.160Z,56.80
2022-11-09T05:17:39.884Z,56.80
2022-11-09T05:20:07.051Z,56.80
2022-11-09T05:22:52.552Z,56.80
2022-11-09T05:25:19.203Z,56.90
2022-11-09T05:27:46.023Z,56.90
2022-11-09T05:30:12.920Z,56.90
2022-11-09T05:32:39.720Z,56.90
2022-11-09T05:35:07.075Z,56.90
2022-11-09T05:37:33.756Z,56.90
2022-11-09T05:40:00.817Z,56.90
2022-11-09T05:42:27.413Z,56.90
2022-11-09T05:44:56.131Z,56.90
2022-11-09T05:47:23.257Z,56.90
2022-11-09T05:49:50.282Z,56.90
2022-11-09T05:52:16.884Z,56.90
2022-11-09T05:54:43.615Z,56.90
2022-11-09T05:57:10.276Z,57.00
2022-11-09T05:59:36.934Z,56.90
2022-11-09T06:02:03.950Z,56.90
2022-11-09T06:04:30.769Z,56.90
2022-11-09T06:06:57.655Z,56.90
2022-11-09T06:09:24.352Z,56.90
2022-11-09T06:11:51.330Z,56.90
2022-11-09T06:14:18.009Z,56.80
2022-11-09T06:16:44.640Z,56.90
2022-11-09T06:19:11.461Z,56.90
2022-11-09T06:21:38.301Z,56.90
2022-11-09T06:24:05.074Z,56.90
2022-11-09T06:26:31.832Z,56.90
2022-11-09T06:28:58.592Z,56.90
2022-11-09T06:31:25.605Z,56.90
2022-11-09T06:33:52.288Z,56.90
2022-11-09T06:36:19.134Z,56.90
2022-11-09T06:38:49.403Z,56.90
2022-11-09T06:41:16.326Z,57.00
2022-11-09T06:43:43.210Z,56.90
2022-11-09T06:46:11.010Z,56.90
2022-11-09T06:48:40.396Z,56.90
2022-11-09T06:51:07.381Z,57.00
2022-11-09T06:53:35.096Z,56.90
2022-11-09T06:56:03.306Z,57.00
2022-11-09T06:58:30.739Z,57.10
2022-11-09T07:00:57.799Z,57.10
2022-11-09T07:03:25.184Z,57.00
2022-11-09T07:05:53.154Z,57.00
2022-11-09T07:08:20.075Z,57.10
2022-11-09T07:10:46.789Z,57.00
2022-11-09T07:13:13.521Z,57.10
2022-11-09T07:15:40.273Z,57.10
2022-11-09T07:18:11.877Z,57.10
2022-11-09T07:20:38.565Z,57.60
2022-11-09T07:23:05.420Z,57.10
2022-11-09T07:25:32.657Z,57.10
2022-11-09T07:28:04.782Z,57.20
2022-11-09T07:30:31.656Z,57.30
2022-11-09T07:33:09.135Z,57.20
2022-11-09T07:35:36.287Z,57.20
2022-11-09T07:38:02.906Z,57.20
2022-11-09T07:40:30.379Z,57.30
2022-11-09T07:43:01.733Z,57.30
2022-11-09T07:45:29.484Z,57.20
2022-11-09T07:48:01.754Z,57.20
2022-11-09T07:50:30.488Z,57.30
2022-11-09T07:52:58.851Z,57.20
2022-11-09T07:55:26.865Z,57.20
2022-11-09T07:58:01.783Z,57.20
2022-11-09T08:00:30.546Z,57.20
2022-11-09T08:02:57.513Z,57.20
2022-11-09T08:05:24.809Z,57.20
2022-11-09T08:08:03.316Z,57.30
2022-11-09T08:10:31.476Z,57.10
2022-11-09T08:13:01.709Z,57.20
2022-11-09T08:15:29.435Z,57.10
2022-11-09T08:18:03.401Z,57.20
2022-11-09T08:20:31.035Z,57.30
2022-11-09T08:23:03.377Z,57.30
2022-11-09T08:25:33.160Z,57.20
2022-11-09T08:27:59.746Z,57.20
2022-11-09T08:30:26.841Z,57.20
2022-11-09T08:32:53.572Z,57.20
2022-11-09T08:35:21.984Z,57.10
2022-11-09T08:37:50.581Z,57.00
2022-11-09T08:40:20.482Z,56.90
2022-11-09T08:42:47.560Z,57.20
2022-11-09T08:45:14.996Z,57.60
2022-11-09T08:47:42.205Z,57.60
2022-11-09T08:50:11.227Z,57.80
2022-11-09T08:52:38.141Z,58.30
2022-11-09T08:55:05.893Z,58.50
2022-11-09T08:57:33.411Z,58.70
2022-11-09T09:00:00.043Z,58.60
2022-11-09T09:02:26.878Z,57.20
2022-11-09T09:04:53.610Z,56.00
2022-11-09T09:07:21.460Z,55.40
2022-11-09T09:09:48.212Z,56.30
2022-11-09T09:12:15.057Z,56.80
2022-11-09T09:14:41.708Z,56.10
2022-11-09T09:17:08.539Z,55.70
2022-11-09T09:19:35.193Z,54.80
2022-11-09T09:22:02.637Z,52.90
2022-11-09T09:24:29.324Z,53.60
2022-11-09T09:26:56.194Z,53.10
2022-11-09T09:29:23.096Z,52.10
2022-11-09T09:31:49.813Z,51.20
2022-11-09T09:34:16.651Z,50.20
2022-11-09T09:36:48.049Z,49.70
2022-11-09T09:39:16.049Z,49.40
2022-11-09T09:41:52.061Z,49.10
2022-11-09T09:44:40.349Z,48.60
2022-11-09T09:47:18.659Z,47.30
2022-11-09T09:50:01.452Z,47.90
2022-11-09T09:52:47.661Z,47.00
2022-11-09T09:55:30.992Z,47.60
2022-11-09T09:58:06.726Z,48.10
2022-11-09T10:00:35.696Z,47.80
2022-11-09T10:03:02.424Z,48.60
2022-11-09T10:05:46.162Z,49.80
2022-11-09T10:08:22.203Z,48.70
2022-11-09T10:11:27.195Z,49.10
2022-11-09T10:14:17.092Z,46.50
2022-11-09T10:17:14.170Z,48.80
2022-11-09T10:20:12.151Z,47.10
2022-11-09T10:22:48.430Z,46.20
2022-11-09T10:25:43.454Z,47.10
2022-11-09T10:28:14.229Z,46.90
2022-11-09T10:30:41.765Z,47.10
2022-11-09T10:33:11.372Z,47.20
2022-11-09T10:35:45.101Z,45.70
2022-11-09T10:38:35.927Z,45.20
2022-11-09T10:41:26.800Z,45.20
2022-11-09T10:44:18.148Z,45.70
2022-11-09T10:47:16.773Z,45.00
2022-11-09T10:50:22.056Z,44.50
2022-11-09T10:53:19.295Z,42.70
2022-11-09T10:56:21.289Z,44.10
2022-11-09T10:59:36.783Z,43.80
2022-11-09T11:02:25.296Z,43.00
2022-11-09T11:05:12.589Z,43.60
2022-11-09T11:07:59.005Z,42.50
2022-11-09T11:10:44.047Z,42.80
2022-11-09T11:13:29.583Z,42.60
2022-11-09T11:16:33.198Z,42.30
2022-11-09T11:19:41.435Z,42.10
2022-11-09T11:22:27.389Z,42.30
2022-11-09T11:25:21.788Z,42.70
2022-11-09T11:28:42.277Z,42.20
2022-11-09T11:31:27.796Z,42.90
2022-11-09T11:34:32.158Z,43.60
2022-11-09T11:37:39.804Z,42.80
2022-11-09T11:40:38.027Z,42.80
2022-11-09T11:43:36.279Z,43.60
2022-11-09T11:47:06.893Z,44.00
2022-11-09T11:50:12.008Z,43.80
2022-11-09T11:53:28.389Z,44.10
2022-11-09T11:56:44.061Z,44.30
2022-11-09T11:59:53.999Z,43.90
2022-11-09T12:03:04.048Z,43.90
2022-11-09T12:06:30.459Z,44.20
2022-11-09T12:09:33.351Z,43.30
2022-11-09T12:12:35.432Z,43.80
2022-11-09T12:15:52.288Z,44.30
2022-11-09T12:18:40.315Z,43.70
2022-11-09T12:21:34.176Z,43.60
2022-11-09T12:24:33.560Z,44.00
2022-11-09T12:27:44.234Z,44.10
2022-11-09T12:31:06.724Z,44.30
2022-11-09T12:34:00.239Z,44.20
2022-11-09T12:36:54.407Z,45.20
2022-11-09T12:39:58.277Z,44.30
2022-11-09T12:42:53.860Z,44.60
2022-11-09T12:45:40.987Z,44.60
2022-11-09T12:48:30.954Z,44.80
2022-11-09T12:51:16.965Z,44.80
2022-11-09T12:54:09.956Z,44.80
2022-11-09T12:57:02.331Z,44.90
2022-11-09T12:59:56.400Z,44.90
2022-11-09T13:02:56.375Z,44.70
2022-11-09T13:05:43.012Z,44.80
2022-11-09T13:08:30.895Z,45.10
2022-11-09T13:11:40.886Z,45.00
2022-11-09T13:14:33.478Z,45.10
2022-11-09T13:17:24.888Z,45.00
2022-11-09T13:20:53.917Z,45.10
2022-11-09T13:23:59.999Z,45.10
2022-11-09T13:26:46.494Z,45.20
2022-11-09T13:29:40.894Z,45.40
2022-11-09T13:32:33.593Z,45.50
2022-11-09T13:35:41.080Z,45.60
2022-11-09T13:38:30.641Z,45.40
2022-11-09T13:41:32.064Z,45.60
2022-11-09T13:44:22.167Z,45.60
2022-11-09T13:47:29.782Z,45.70
2022-11-09T13:50:21.017Z,45.80
2022-11-09T13:53:30.834Z,45.80
2022-11-09T13:56:28.196Z,46.30
2022-11-09T13:59:22.057Z,46.00
2022-11-09T14:02:18.333Z,46.20
2022-11-09T14:05:03.734Z,46.20
2022-11-09T14:07:48.868Z,46.10
2022-11-09T14:10:59.161Z,46.20
2022-11-09T14:14:11.976Z,46.20
2022-11-09T14:17:08.745Z,46.30
2022-11-09T14:20:17.672Z,46.40
2022-11-09T14:23:03.097Z,46.50
2022-11-09T14:25:49.228Z,46.60
2022-11-09T14:28:36.607Z,46.60
2022-11-09T14:31:23.733Z,46.60
2022-11-09T14:34:15.495Z,46.60
2022-11-09T14:37:04.849Z,46.60
2022-11-09T14:39:54.194Z,46.50
2022-11-09T14:42:44.928Z,46.40
2022-11-09T14:45:31.575Z,46.40
2022-11-09T14:48:20.122Z,46.60
2022-11-09T14:51:11.919Z,46.50
2022-11-09T14:53:58.302Z,46.60
2022-11-09T14:56:44.621Z,46.50
2022-11-09T14:59:32.918Z,46.60
2022-11-09T15:02:20.969Z,46.60
2022-11-09T15:05:07.405Z,46.50
2022-11-09T15:07:53.110Z,46.50
2022-11-09T15:10:38.795Z,46.70
2022-11-09T15:13:32.157Z,46.70
2022-11-09T15:16:28.857Z,46.90
2022-11-09T15:19:29.608Z,46.90
2022-11-09T15:22:36.882Z,46.90
2022-11-09T15:25:28.260Z,46.90
2022-11-09T15:28:13.637Z,46.90
2022-11-09T15:30:59.128Z,46.80
2022-11-09T15:33:52.134Z,46.90
2022-11-09T15:36:39.879Z,47.00
2022-11-09T15:39:28.447Z,47.00
2022-11-09T15:42:13.989Z,47.10
2022-11-09T15:44:59.897Z,47.20
2022-11-09T15:47:52.331Z,47.30
2022-11-09T15:50:37.357Z,47.40
2022-11-09T15:53:23.511Z,47.40
2022-11-09T15:56:19.230Z,47.50
2022-11-09T15:59:05.358Z,47.70
2022-11-09T16:01:51.252Z,47.60
2022-11-09T16:04:36.666Z,47.70
2022-11-09T16:07:22.141Z,47.70
2022-11-09T16:10:12.741Z,47.90
2022-11-09T16:12:58.394Z,48.00
2022-11-09T16:15:43.889Z,48.00
2022-11-09T16:18:29.368Z,48.10
2022-11-09T16:21:17.236Z,48.20
2022-11-09T16:24:02.622Z,48.20
2022-11-09T16:26:48.136Z,48.20
2022-11-09T16:29:33.873Z,48.30
2022-11-09T16:32:19.147Z,48.30
2022-11-09T16:35:25.975Z,48.30
2022-11-09T16:38:11.681Z,48.40
2022-11-09T16:40:59.811Z,48.30
2022-11-09T16:43:46.821Z,48.30
2022-11-09T16:46:33.848Z,48.30
2022-11-09T16:49:18.995Z,48.30
2022-11-09T16:52:04.667Z,48.30
2022-11-09T16:54:50.090Z,48.30
2022-11-09T16:57:36.382Z,48.40
2022-11-09T17:00:27.680Z,48.40
2022-11-09T17:03:22.918Z,48.40
2022-11-09T17:06:11.287Z,48.40
2022-11-09T17:08:56.905Z,48.40
2022-11-09T17:11:42.493Z,48.40
2022-11-09T17:14:31.040Z,48.40
2022-11-09T17:17:22.233Z,48.40
2022-11-09T17:20:08.877Z,48.40
2022-11-09T17:22:54.491Z,48.40
2022-11-09T17:25:40.246Z,48.50
2022-11-09T17:28:27.069Z,48.60
2022-11-09T17:31:23.122Z,48.80
2022-11-09T17:34:08.827Z,48.90
2022-11-09T17:37:09.390Z,49.10
2022-11-09T17:39:54.420Z,49.00
2022-11-09T17:42:39.963Z,49.10
2022-11-09T17:45:25.365Z,49.10
2022-11-09T17:48:10.802Z,49.10
2022-11-09T17:50:57.537Z,49.10
2022-11-09T17:53:42.985Z,49.10
2022-11-09T17:56:28.320Z,49.10
2022-11-09T17:59:13.577Z,49.30
2022-11-09T18:01:59.138Z,49.10
2022-11-09T18:04:44.375Z,49.30
2022-11-09T18:07:30.972Z,49.40
2022-11-09T18:10:16.225Z,49.20
2022-11-09T18:13:01.846Z,49.20
2022-11-09T18:15:47.441Z,49.20
2022-11-09T18:18:33.129Z,49.30
2022-11-09T18:21:19.865Z,49.20
2022-11-09T18:24:05.534Z,49.30
2022-11-09T18:26:50.715Z,49.30
2022-11-09T18:29:36.082Z,49.30
2022-11-09T18:32:21.671Z,49.30
2022-11-09T18:35:08.102Z,49.40
2022-11-09T18:37:53.118Z,49.40
2022-11-09T18:40:38.470Z,49.40
2022-11-09T18:43:23.756Z,49.60
2022-11-09T18:46:11.606Z,49.50
2022-11-09T18:48:57.074Z,49.60
2022-11-09T18:51:43.548Z,49.70
2022-11-09T18:54:29.008Z,49.60
2022-11-09T18:57:19.486Z,49.50
2022-11-09T19:00:05.615Z,49.60
2022-11-09T19:02:50.958Z,49.60
2022-11-09T19:05:39.973Z,49.70
2022-11-09T19:08:44.312Z,49.60
2022-11-09T19:11:30.525Z,49.60
2022-11-09T19:14:15.653Z,49.60
2022-11-09T19:17:01.168Z,49.60
2022-11-09T19:19:46.488Z,49.70
2022-11-09T19:22:34.711Z,49.70
2022-11-09T19:25:20.088Z,49.80
2022-11-09T19:28:05.495Z,49.80
2022-11-09T19:30:50.724Z,49.80
2022-11-09T19:33:36.216Z,49.80
2022-11-09T19:36:30.405Z,49.80
2022-11-09T19:39:17.492Z,50.10
2022-11-09T19:42:02.640Z,50.10
2022-11-09T19:44:50.964Z,50.10
2022-11-09T19:47:40.331Z,50.00
2022-11-09T19:50:25.641Z,50.10
2022-11-09T19:53:11.169Z,49.90
2022-11-09T19:56:01.328Z,50.00
2022-11-09T19:58:51.097Z,50.00
2022-11-09T20:01:36.541Z,50.00
2022-11-09T20:04:21.976Z,49.80
2022-11-09T20:07:07.662Z,49.80
2022-11-09T20:09:52.944Z,49.90
2022-11-09T20:12:50.320Z,49.70
2022-11-09T20:15:36.237Z,49.70
2022-11-09T20:18:24.043Z,49.60
2022-11-09T20:21:09.746Z,49.60
2022-11-09T20:23:54.881Z,49.60
2022-11-09T20:26:42.193Z,49.60
2022-11-09T20:29:27.402Z,49.60
2022-11-09T20:32:14.780Z,49.60
2022-11-09T20:35:02.109Z,49.60
2022-11-09T20:37:47.230Z,49.60
2022-11-09T20:40:32.564Z,49.60
2022-11-09T20:43:18.004Z,49.70
2022-11-09T20:46:13.742Z,49.70
2022-11-09T20:49:00.838Z,49.70
2022-11-09T20:51:46.621Z,49.70
2022-11-09T20:54:31.818Z,49.60
2022-11-09T20:57:17.751Z,49.60
2022-11-09T21:00:05.225Z,50.10
2022-11-09T21:02:50.572Z,49.60
2022-11-09T21:05:35.952Z,49.60
2022-11-09T21:08:21.467Z,49.60
2022-11-09T21:11:07.937Z,49.60
2022-11-09T21:13:54.144Z,49.60
2022-11-09T21:16:40.027Z,49.60
2022-11-09T21:19:25.131Z,49.60
2022-11-09T21:22:11.395Z,49.60
2022-11-09T21:25:15.017Z,49.50
2022-11-09T21:28:18.898Z,49.50
2022-11-09T21:31:05.024Z,49.60
2022-11-09T21:33:53.057Z,49.50
2022-11-09T21:36:38.102Z,49.60
2022-11-09T21:39:23.944Z,49.60
2022-11-09T21:42:11.984Z,49.60
2022-11-09T21:44:57.455Z,49.60
2022-11-09T21:47:42.766Z,49.60
2022-11-09T21:50:28.246Z,49.60
2022-11-09T21:53:13.625Z,49.60
2022-11-09T21:56:02.197Z,49.60
2022-11-09T21:58:48.267Z,49.60
2022-11-09T22:01:33.747Z,49.60
2022-11-09T22:04:19.208Z,49.60
2022-11-09T22:07:04.431Z,49.60
2022-11-09T22:10:09.267Z,49.60
2022-11-09T22:13:13.970Z,49.60
2022-11-09T22:16:06.579Z,49.60
2022-11-09T22:19:11.370Z,49.60
2022-11-09T22:21:56.949Z,49.60
2022-11-09T22:24:43.398Z,49.60
2022-11-09T22:27:31.432Z,49.60
2022-11-09T22:30:17.288Z,49.70
2022-11-09T22:33:02.784Z,49.60
2022-11-09T22:35:59.128Z,49.70
2022-11-09T22:38:45.426Z,49.80
2022-11-09T22:41:30.535Z,49.70
2022-11-09T22:44:16.215Z,49.60
2022-11-09T22:47:01.728Z,49.70
2022-11-09T22:49:46.730Z,49.70
2022-11-09T22:52:31.967Z,49.80
2022-11-09T22:55:18.611Z,49.80
2022-11-09T22:58:04.318Z,49.90
2022-11-09T23:00:50.193Z,50.00
2022-11-09T23:03:35.777Z,50.00
2022-11-09T23:06:22.572Z,50.00
2022-11-09T23:09:07.845Z,50.00
2022-11-09T23:11:53.359Z,50.00
2022-11-09T23:14:57.152Z,49.90
2022-11-09T23:18:01.141Z,50.00
2022-11-09T23:20:47.060Z,50.00
2022-11-09T23:23:32.643Z,50.10
2022-11-09T23:26:18.222Z,50.00
2022-11-09T23:29:03.625Z,49.90
2022-11-09T23:31:48.934Z,49.80
2022-11-09T23:34:34.289Z,49.90
2022-11-09T23:37:19.632Z,49.90
2022-11-09T23:40:06.123Z,50.00
2022-11-09T23:42:51.539Z,50.20
2022-11-09T23:45:40.804Z,50.30
2022-11-09T23:48:26.081Z,50.30
2022-11-09T23:51:12.158Z,50.30
2022-11-09T23:53:57.514Z,50.40
2022-11-09T23:56:43.052Z,50.40
2022-11-09T23:59:28.440Z,50.90
